Time;durP1;ratioP1;P1;durP2;ratioP2;P2;SDS_P1;SDS_P2;PMS_P1;PMS_P2;Temp;Humidity;BMP_temperature;BMP_pressure;BME280_temperature;BME280_humidity;BME280_pressure;Samples;Min_cycle;Max_cycle;Signal;HPM_P1;HPM_P2
2022/01/09 00:01:23;;;;;;;;;;;19.40;51.40;;;;;;5023573;28;43940;-68
2022/01/09 00:03:48;;;;;;;;;;;19.40;51.50;;;;;;5042931;28;42845;-70
2022/01/09 00:06:14;;;;;;;;;;;19.40;51.50;;;;;;5038994;28;43515;-69
2022/01/09 00:08:40;;;;;;;;;;;19.40;51.60;;;;;;5023844;28;42909;-70
2022/01/09 00:11:06;;;;;;;;;;;19.40;51.70;;;;;;5036973;28;43097;-67
2022/01/09 00:13:31;;;;;;;;;;;19.40;51.70;;;;;;5036775;28;42948;-68
2022/01/09 00:15:57;;;;;;;;;;;19.40;51.70;;;;;;5036789;28;43511;-68
2022/01/09 00:18:22;;;;;;;;;;;19.40;51.90;;;;;;5039405;28;42965;-69
2022/01/09 00:20:48;;;;;;;;;;;19.40;51.70;;;;;;5036264;28;42977;-69
2022/01/09 00:23:13;;;;;;;;;;;19.40;52.10;;;;;;5035835;28;43038;-71
2022/01/09 00:25:39;;;;;;;;;;;19.40;52.10;;;;;;5036533;28;42972;-69
2022/01/09 00:28:05;;;;;;;;;;;19.40;51.90;;;;;;5026007;28;43015;-71
2022/01/09 00:30:30;;;;;;;;;;;19.40;52.10;;;;;;5025359;28;43470;-69
2022/01/09 00:32:57;;;;;;;;;;;19.40;52.10;;;;;;5025271;28;42937;-69
2022/01/09 00:35:22;;;;;;;;;;;19.40;52.50;;;;;;5024452;28;43429;-72
2022/01/09 00:37:48;;;;;;;;;;;19.40;52.50;;;;;;5025395;28;43108;-69
2022/01/09 00:40:14;;;;;;;;;;;19.40;52.60;;;;;;5024672;28;43523;-70
2022/01/09 00:42:40;;;;;;;;;;;19.40;52.60;;;;;;5026216;28;43373;-69
2022/01/09 00:45:06;;;;;;;;;;;19.40;52.60;;;;;;5026601;28;43503;-70
2022/01/09 00:47:32;;;;;;;;;;;19.40;52.60;;;;;;5041186;28;43372;-68
2022/01/09 00:49:58;;;;;;;;;;;19.40;52.60;;;;;;5045679;28;42918;-68
2022/01/09 00:52:24;;;;;;;;;;;19.40;52.70;;;;;;5026380;28;43083;-72
2022/01/09 00:54:49;;;;;;;;;;;19.40;52.60;;;;;;5026339;28;43443;-69
2022/01/09 00:57:15;;;;;;;;;;;19.40;52.60;;;;;;5026434;28;42946;-69
2022/01/09 00:59:40;;;;;;;;;;;19.40;52.70;;;;;;5026336;28;42921;-69
2022/01/09 01:02:05;;;;;;;;;;;19.40;52.80;;;;;;5026569;28;43075;-69
2022/01/09 01:04:31;;;;;;;;;;;19.40;52.70;;;;;;5025377;28;43403;-69
2022/01/09 01:06:57;;;;;;;;;;;19.40;52.70;;;;;;5030937;28;42952;-69
2022/01/09 01:09:24;;;;;;;;;;;19.40;52.80;;;;;;5046687;28;43526;-68
2022/01/09 01:11:50;;;;;;;;;;;19.40;52.80;;;;;;5047117;28;42922;-68
2022/01/09 01:14:15;;;;;;;;;;;19.40;52.90;;;;;;5041152;28;43048;-69
2022/01/09 01:16:41;;;;;;;;;;;19.40;53.00;;;;;;5041271;28;42826;-70
2022/01/09 01:19:07;;;;;;;;;;;19.40;52.90;;;;;;5045969;28;42891;-72
2022/01/09 01:21:33;;;;;;;;;;;19.40;53.00;;;;;;5046222;28;42988;-70
2022/01/09 01:23:59;;;;;;;;;;;19.40;52.90;;;;;;5044804;28;43469;-69
2022/01/09 01:26:24;;;;;;;;;;;19.40;52.90;;;;;;5027871;28;43032;-69
2022/01/09 01:28:50;;;;;;;;;;;19.40;53.00;;;;;;5046531;28;43036;-69
2022/01/09 01:31:15;;;;;;;;;;;19.40;53.00;;;;;;5046589;28;42972;-69
2022/01/09 01:33:41;;;;;;;;;;;19.40;53.00;;;;;;5045914;28;43666;-69
2022/01/09 01:36:06;;;;;;;;;;;19.40;53.00;;;;;;5044375;28;42964;-70
2022/01/09 01:38:33;;;;;;;;;;;19.40;53.00;;;;;;5045833;28;42911;-69
2022/01/09 01:40:58;;;;;;;;;;;19.30;52.90;;;;;;5045350;28;46025;-69
2022/01/09 01:43:25;;;;;;;;;;;19.40;53.10;;;;;;5045793;28;42869;-70
2022/01/09 01:45:50;;;;;;;;;;;19.40;53.10;;;;;;5046638;28;42940;-71
2022/01/09 01:48:16;;;;;;;;;;;19.40;53.00;;;;;;5045877;28;43058;-69
2022/01/09 01:50:42;;;;;;;;;;;19.30;52.90;;;;;;5046500;28;42845;-69
2022/01/09 01:53:12;;;;;;;;;;;19.40;53.00;;;;;;5027722;28;44636;-71
2022/01/09 01:55:39;;;;;;;;;;;19.40;53.20;;;;;;5045602;28;43188;-70
2022/01/09 01:58:06;;;;;;;;;;;19.40;53.10;;;;;;5044734;28;43495;-71
2022/01/09 02:00:32;;;;;;;;;;;19.40;53.10;;;;;;5045417;28;43173;-69
2022/01/09 02:02:58;;;;;;;;;;;19.40;53.30;;;;;;5046147;28;42963;-69
2022/01/09 02:05:23;;;;;;;;;;;19.40;53.40;;;;;;5044405;28;42955;-68
2022/01/09 02:07:52;;;;;;;;;;;19.30;53.50;;;;;;5044476;28;42919;-70
2022/01/09 02:10:18;;;;;;;;;;;19.40;53.50;;;;;;5044317;28;43207;-69
2022/01/09 02:12:43;;;;;;;;;;;19.40;53.70;;;;;;5044287;28;42785;-70
2022/01/09 02:15:25;;;;;;;;;;;19.40;53.70;;;;;;5042449;28;43654;-69
2022/01/09 02:17:50;;;;;;;;;;;19.40;53.90;;;;;;5044784;28;42919;-71
2022/01/09 02:20:16;;;;;;;;;;;19.40;54.00;;;;;;5044744;28;42898;-70
2022/01/09 02:22:41;;;;;;;;;;;19.40;54.00;;;;;;5043862;28;43075;-70
2022/01/09 02:25:07;;;;;;;;;;;19.40;54.20;;;;;;5044159;28;43066;-71
2022/01/09 02:27:33;;;;;;;;;;;19.40;54.20;;;;;;5043370;28;42833;-69
2022/01/09 02:29:58;;;;;;;;;;;19.30;54.20;;;;;;5043917;28;42964;-71
2022/01/09 02:32:24;;;;;;;;;;;19.40;54.30;;;;;;5042578;28;42941;-68
2022/01/09 02:34:50;;;;;;;;;;;19.40;54.40;;;;;;5037583;28;43079;-71
2022/01/09 02:37:15;;;;;;;;;;;19.30;54.50;;;;;;5023568;28;42897;-72
2022/01/09 02:39:41;;;;;;;;;;;19.30;54.40;;;;;;5023933;28;43087;-71
2022/01/09 02:42:16;;;;;;;;;;;19.40;54.50;;;;;;5042799;28;43060;-70
2022/01/09 02:44:42;;;;;;;;;;;19.30;54.60;;;;;;5043968;28;42947;-70
2022/01/09 02:47:08;;;;;;;;;;;19.40;54.50;;;;;;5043410;28;43378;-70
2022/01/09 02:49:33;;;;;;;;;;;19.40;54.70;;;;;;5042075;28;42969;-70
2022/01/09 02:51:59;;;;;;;;;;;19.40;54.90;;;;;;5042784;28;43010;-70
2022/01/09 02:57:08;;;;;;;;;;;19.40;55.20;;;;;;5043417;28;43264;-69
2022/01/09 02:59:34;;;;;;;;;;;19.40;55.50;;;;;;5042838;28;43031;-67
2022/01/09 03:01:59;;;;;;;;;;;19.40;55.70;;;;;;5042691;28;43657;-69
2022/01/09 03:04:25;;;;;;;;;;;19.40;55.80;;;;;;5043010;28;43187;-69
2022/01/09 03:06:51;;;;;;;;;;;19.40;55.60;;;;;;4957467;28;1864936;-69
2022/01/09 03:09:17;;;;;;;;;;;19.40;55.90;;;;;;5024868;28;43008;-70
2022/01/09 03:11:45;;;;;;;;;;;19.40;55.90;;;;;;5026217;28;44500;-72
2022/01/09 03:14:10;;;;;;;;;;;19.40;55.80;;;;;;5044640;28;42885;-69
2022/01/09 03:16:36;;;;;;;;;;;19.40;55.90;;;;;;5037307;28;42935;-70
2022/01/09 03:19:01;;;;;;;;;;;19.40;55.90;;;;;;5023047;28;43098;-68
2022/01/09 03:21:27;;;;;;;;;;;19.40;56.00;;;;;;5028879;28;43436;-69
2022/01/09 03:23:52;;;;;;;;;;;19.40;56.10;;;;;;5044114;28;42905;-70
2022/01/09 03:26:18;;;;;;;;;;;19.40;56.10;;;;;;5044184;28;42917;-69
2022/01/09 03:28:43;;;;;;;;;;;19.40;55.90;;;;;;5043775;28;43012;-69
2022/01/09 03:31:09;;;;;;;;;;;19.40;55.90;;;;;;5042790;28;43006;-70
2022/01/09 03:33:34;;;;;;;;;;;19.40;56.00;;;;;;5044219;28;43092;-69
2022/01/09 03:36:00;;;;;;;;;;;19.30;55.90;;;;;;5044210;28;43474;-70
2022/01/09 03:38:25;;;;;;;;;;;19.40;56.00;;;;;;5042134;28;43259;-70
2022/01/09 03:40:51;;;;;;;;;;;19.40;56.00;;;;;;5043038;28;42923;-69
2022/01/09 03:43:17;;;;;;;;;;;19.30;55.90;;;;;;5043623;28;42953;-71
2022/01/09 03:45:43;;;;;;;;;;;19.40;56.00;;;;;;5042106;28;43675;-69
2022/01/09 03:48:08;;;;;;;;;;;19.40;56.00;;;;;;5044109;28;43030;-70
2022/01/09 03:50:34;;;;;;;;;;;19.40;56.10;;;;;;5043530;28;43463;-69
2022/01/09 03:52:59;;;;;;;;;;;19.30;56.00;;;;;;5043288;28;42827;-69
2022/01/09 03:55:25;;;;;;;;;;;19.40;56.10;;;;;;5041908;28;42928;-70
2022/01/09 03:57:51;;;;;;;;;;;19.30;56.10;;;;;;5042911;28;43053;-69
2022/01/09 04:00:17;;;;;;;;;;;19.30;56.10;;;;;;5044883;28;43130;-69
2022/01/09 04:02:43;;;;;;;;;;;19.30;56.30;;;;;;5046801;28;43674;-69
2022/01/09 04:05:09;;;;;;;;;;;19.40;56.40;;;;;;5046481;28;43007;-69
2022/01/09 04:07:35;;;;;;;;;;;19.40;56.20;;;;;;5046895;28;42929;-70
2022/01/09 04:10:01;;;;;;;;;;;19.30;56.20;;;;;;5046255;28;43068;-72
2022/01/09 04:12:34;;;;;;;;;;;19.30;56.10;;;;;;5045022;28;42980;-69
2022/01/09 04:15:01;;;;;;;;;;;19.30;56.10;;;;;;5046501;28;43315;-70
2022/01/09 04:17:43;;;;;;;;;;;19.30;56.00;;;;;;5046266;28;43051;-71
2022/01/09 04:20:09;;;;;;;;;;;19.30;56.10;;;;;;5046362;28;43454;-69
2022/01/09 04:22:35;;;;;;;;;;;19.30;56.00;;;;;;5047067;28;43004;-69
2022/01/09 04:25:00;;;;;;;;;;;19.30;56.00;;;;;;5047569;28;43523;-69
2022/01/09 04:27:26;;;;;;;;;;;19.30;56.00;;;;;;5039470;28;42934;-69
2022/01/09 04:29:51;;;;;;;;;;;19.30;55.90;;;;;;5026488;28;43519;-69
2022/01/09 04:32:17;;;;;;;;;;;19.30;55.90;;;;;;5036399;28;42808;-69
2022/01/09 04:34:42;;;;;;;;;;;19.30;55.80;;;;;;5028456;28;43328;-69
2022/01/09 04:37:08;;;;;;;;;;;19.30;55.80;;;;;;5026540;28;42871;-70
2022/01/09 04:39:33;;;;;;;;;;;19.30;55.80;;;;;;5025422;28;42945;-69
2022/01/09 04:41:59;;;;;;;;;;;19.30;55.80;;;;;;5025823;28;42965;-71
2022/01/09 04:44:25;;;;;;;;;;;19.30;55.70;;;;;;5036818;28;43591;-69
2022/01/09 04:46:59;;;;;;;;;;;19.20;55.60;;;;;;5045373;28;43094;-69
2022/01/09 04:49:29;;;;;;;;;;;19.20;55.60;;;;;;5019263;28;44037;-70
2022/01/09 04:51:56;;;;;;;;;;;19.20;55.70;;;;;;5026306;28;42977;-69
2022/01/09 04:54:21;;;;;;;;;;;19.30;55.70;;;;;;5026679;28;42988;-68
2022/01/09 04:56:47;;;;;;;;;;;19.30;55.80;;;;;;5025796;28;43063;-69
2022/01/09 04:59:12;;;;;;;;;;;19.20;55.60;;;;;;5026012;28;43804;-69
2022/01/09 05:01:38;;;;;;;;;;;19.30;55.80;;;;;;5030997;28;43132;-69
2022/01/09 05:04:03;;;;;;;;;;;19.20;55.70;;;;;;5025256;28;44034;-69
2022/01/09 05:06:29;;;;;;;;;;;19.20;55.60;;;;;;5025983;28;42805;-72
2022/01/09 05:08:54;;;;;;;;;;;19.30;55.70;;;;;;5025796;28;43946;-69
2022/01/09 05:11:20;;;;;;;;;;;19.20;55.70;;;;;;5024355;28;43083;-69
2022/01/09 05:13:45;;;;;;;;;;;19.00;55.50;;;;;;5024221;28;44050;-71
2022/01/09 05:16:11;;;;;;;;;;;19.20;55.60;;;;;;5034509;28;42880;-69
2022/01/09 05:18:50;;;;;;;;;;;19.20;56.20;;;;;;5026496;28;43654;-69
2022/01/09 05:21:16;;;;;;;;;;;19.30;55.60;;;;;;5044409;28;42949;-69
2022/01/09 05:23:42;;;;;;;;;;;19.20;55.60;;;;;;5045709;28;42987;-69
2022/01/09 05:26:08;;;;;;;;;;;19.20;55.50;;;;;;5045361;28;43005;-69
2022/01/09 05:28:33;;;;;;;;;;;19.20;55.50;;;;;;5045811;28;43536;-69
2022/01/09 05:30:59;;;;;;;;;;;19.20;55.50;;;;;;5044851;28;42966;-71
2022/01/09 05:33:24;;;;;;;;;;;19.20;55.50;;;;;;5045634;28;43302;-69
2022/01/09 05:35:50;;;;;;;;;;;19.20;55.50;;;;;;5045933;28;42952;-69
2022/01/09 05:38:18;;;;;;;;;;;19.20;55.50;;;;;;5044926;28;42925;-68
2022/01/09 05:40:44;;;;;;;;;;;19.20;55.50;;;;;;5045458;28;43049;-69
2022/01/09 05:43:10;;;;;;;;;;;19.20;55.40;;;;;;5037149;28;43575;-69
2022/01/09 05:45:36;;;;;;;;;;;19.20;55.40;;;;;;5036902;28;43097;-69
2022/01/09 05:48:02;;;;;;;;;;;19.20;55.60;;;;;;5017056;28;43625;-69
2022/01/09 05:50:27;;;;;;;;;;;19.20;55.50;;;;;;5042863;28;42975;-69
2022/01/09 05:52:53;;;;;;;;;;;19.20;55.50;;;;;;5044915;28;42862;-70
2022/01/09 05:55:19;;;;;;;;;;;19.20;55.50;;;;;;5044682;28;42905;-69
2022/01/09 05:57:44;;;;;;;;;;;19.20;55.60;;;;;;5045174;28;43085;-69
2022/01/09 06:00:10;;;;;;;;;;;19.20;55.50;;;;;;5044336;28;42896;-69
2022/01/09 06:02:35;;;;;;;;;;;19.20;55.50;;;;;;5037998;28;43941;-69
2022/01/09 06:05:01;;;;;;;;;;;19.20;55.60;;;;;;5043534;28;42992;-69
2022/01/09 06:07:26;;;;;;;;;;;19.20;55.40;;;;;;5025734;28;42954;-68
2022/01/09 06:09:52;;;;;;;;;;;19.20;55.50;;;;;;5025240;28;42914;-68
2022/01/09 06:12:17;;;;;;;;;;;19.20;55.40;;;;;;5024132;28;43803;-69
2022/01/09 06:14:43;;;;;;;;;;;19.20;55.50;;;;;;5025165;28;42980;-68
2022/01/09 06:17:08;;;;;;;;;;;19.10;55.40;;;;;;5024671;28;43560;-68
2022/01/09 06:19:34;;;;;;;;;;;19.20;55.40;;;;;;5025066;28;42991;-69
2022/01/09 06:21:59;;;;;;;;;;;19.20;56.00;;;;;;5023633;28;43824;-69
2022/01/09 06:24:25;;;;;;;;;;;19.10;55.40;;;;;;5034662;28;42963;-69
2022/01/09 06:26:50;;;;;;;;;;;19.20;55.40;;;;;;5038558;28;43722;-68
2022/01/09 06:29:16;;;;;;;;;;;19.10;55.30;;;;;;5039316;28;43771;-68
2022/01/09 06:31:42;;;;;;;;;;;19.10;55.40;;;;;;5030145;28;43124;-69
2022/01/09 06:34:08;;;;;;;;;;;19.10;55.30;;;;;;5023875;28;42925;-72
2022/01/09 06:36:34;;;;;;;;;;;19.10;55.30;;;;;;5028000;28;43475;-70
2022/01/09 06:38:59;;;;;;;;;;;19.10;55.30;;;;;;5039484;28;43124;-69
2022/01/09 06:41:25;;;;;;;;;;;19.10;55.30;;;;;;5035210;28;43086;-69
2022/01/09 06:43:50;;;;;;;;;;;19.10;55.20;;;;;;5041871;28;43630;-70
2022/01/09 06:46:16;;;;;;;;;;;19.10;54.90;;;;;;5033742;28;43455;-71
2022/01/09 06:48:41;;;;;;;;;;;20.70;55.70;;;;;;5033922;28;42980;-69
2022/01/09 06:51:07;;;;;;;;;;;19.10;54.80;;;;;;5042218;28;43403;-70
2022/01/09 06:53:32;;;;;;;;;;;19.10;54.70;;;;;;5006031;28;43327;-69
2022/01/09 06:55:58;;;;;;;;;;;19.10;54.70;;;;;;5024980;28;43610;-69
2022/01/09 06:58:23;;;;;;;;;;;19.10;54.50;;;;;;5032952;28;43179;-70
2022/01/09 07:00:49;;;;;;;;;;;19.10;54.30;;;;;;5033026;28;43041;-70
2022/01/09 07:03:15;;;;;;;;;;;19.10;53.70;;;;;;5037924;28;42924;-69
2022/01/09 07:05:41;;;;;;;;;;;19.10;52.70;;;;;;5039689;28;42977;-70
2022/01/09 07:08:07;;;;;;;;;;;19.10;52.20;;;;;;5033844;28;43034;-69
2022/01/09 07:10:32;;;;;;;;;;;19.10;51.50;;;;;;5037500;28;42940;-70
2022/01/09 07:12:58;;;;;;;;;;;19.10;51.80;;;;;;5035758;28;43142;-71
2022/01/09 07:15:23;;;;;;;;;;;19.10;51.90;;;;;;5031289;28;43399;-73
2022/01/09 07:17:49;;;;;;;;;;;19.00;52.50;;;;;;5036692;28;43081;-73
2022/01/09 07:20:14;;;;;;;;;;;18.90;39.80;;;;;;5037504;28;43337;-69
2022/01/09 07:22:40;;;;;;;;;;;18.60;36.90;;;;;;5042497;28;42905;-69
2022/01/09 07:25:06;;;;;;;;;;;18.60;44.50;;;;;;5023656;28;43562;-70
2022/01/09 07:27:33;;;;;;;;;;;18.70;47.20;;;;;;5024620;28;43107;-70
2022/01/09 07:29:58;;;;;;;;;;;18.80;47.60;;;;;;5042253;28;43709;-69
2022/01/09 07:32:24;;;;;;;;;;;18.90;49.20;;;;;;5044095;28;42933;-69
2022/01/09 07:34:49;;;;;;;;;;;18.90;50.10;;;;;;5044252;28;43150;-69
2022/01/09 07:37:15;;;;;;;;;;;18.90;50.30;;;;;;5043852;28;42892;-69
2022/01/09 07:39:40;;;;;;;;;;;19.00;49.70;;;;;;5043653;28;43511;-73
2022/01/09 07:42:06;;;;;;;;;;;19.00;50.60;;;;;;5044425;28;43013;-69
2022/01/09 07:44:31;;;;;;;;;;;19.00;50.70;;;;;;5043516;28;42938;-69
2022/01/09 07:46:57;;;;;;;;;;;19.00;51.10;;;;;;5042700;28;43740;-69
2022/01/09 07:49:23;;;;;;;;;;;19.00;50.90;;;;;;5044590;28;42996;-69
2022/01/09 07:51:49;;;;;;;;;;;19.00;50.80;;;;;;5043903;28;42830;-70
2022/01/09 07:54:14;;;;;;;;;;;19.00;51.30;;;;;;5044150;28;43541;-70
2022/01/09 07:56:40;;;;;;;;;;;19.00;51.20;;;;;;5025492;28;42938;-70
2022/01/09 07:59:06;;;;;;;;;;;19.00;51.80;;;;;;5043696;28;43483;-69
2022/01/09 08:01:31;;;;;;;;;;;19.10;52.20;;;;;;5044429;28;42897;-69
2022/01/09 08:03:57;;;;;;;;;;;19.00;52.30;;;;;;5024585;28;44810;-70
2022/01/09 08:06:22;;;;;;;;;;;19.10;52.20;;;;;;5043163;28;43068;-72
2022/01/09 08:08:48;;;;;;;;;;;19.10;52.70;;;;;;5043683;28;42939;-70
2022/01/09 08:11:15;;;;;;;;;;;19.00;52.80;;;;;;5044352;28;43010;-69
2022/01/09 08:13:40;;;;;;;;;;;19.00;52.60;;;;;;5043973;28;43083;-69
2022/01/09 08:16:06;;;;;;;;;;;19.00;53.00;;;;;;5044659;28;42893;-69
2022/01/09 08:18:31;;;;;;;;;;;19.10;53.10;;;;;;5043839;28;43002;-69
2022/01/09 08:20:57;;;;;;;;;;;19.00;52.90;;;;;;5042132;28;43007;-69
2022/01/09 08:23:22;;;;;;;;;;;19.00;53.10;;;;;;5043593;28;43045;-68
2022/01/09 08:25:48;;;;;;;;;;;19.00;52.90;;;;;;5044068;28;42909;-69
2022/01/09 08:28:13;;;;;;;;;;;19.10;53.10;;;;;;5043738;28;42865;-69
2022/01/09 08:30:39;;;;;;;;;;;19.10;53.20;;;;;;5043958;28;42804;-69
2022/01/09 08:33:05;;;;;;;;;;;19.10;53.40;;;;;;5044164;28;42866;-69
2022/01/09 08:35:30;;;;;;;;;;;19.10;53.30;;;;;;5024796;28;42893;-69
2022/01/09 08:37:56;;;;;;;;;;;19.10;53.50;;;;;;5043398;28;43522;-69
2022/01/09 08:40:22;;;;;;;;;;;19.10;53.40;;;;;;5044042;28;43061;-69
2022/01/09 08:42:53;;;;;;;;;;;19.10;53.50;;;;;;5044039;28;42957;-69
2022/01/09 08:45:19;;;;;;;;;;;19.10;53.70;;;;;;5044632;28;43047;-69
2022/01/09 08:47:44;;;;;;;;;;;19.10;53.80;;;;;;5046297;28;43179;-69
2022/01/09 08:50:11;;;;;;;;;;;19.10;53.70;;;;;;5046730;28;42865;-69
2022/01/09 08:52:36;;;;;;;;;;;19.10;53.90;;;;;;5045294;28;43220;-69
2022/01/09 08:55:03;;;;;;;;;;;19.10;54.00;;;;;;5028456;28;43024;-69
2022/01/09 08:57:29;;;;;;;;;;;19.10;53.90;;;;;;5028053;28;44698;-71
2022/01/09 08:59:54;;;;;;;;;;;19.10;54.10;;;;;;5046732;28;43109;-69
2022/01/09 09:02:20;;;;;;;;;;;19.10;54.10;;;;;;5047187;28;43465;-69
2022/01/09 09:04:45;;;;;;;;;;;19.10;54.00;;;;;;5046517;28;43046;-69
2022/01/09 09:07:11;;;;;;;;;;;19.10;54.00;;;;;;5046129;28;42972;-70
2022/01/09 09:09:37;;;;;;;;;;;19.10;54.20;;;;;;5027223;28;43201;-70
2022/01/09 09:12:04;;;;;;;;;;;19.10;54.30;;;;;;5046874;28;42968;-69
2022/01/09 09:14:29;;;;;;;;;;;19.10;54.40;;;;;;5046658;28;42923;-68
2022/01/09 09:16:55;;;;;;;;;;;19.10;54.40;;;;;;5028034;28;42826;-70
2022/01/09 09:19:20;;;;;;;;;;;19.10;54.40;;;;;;5047181;28;43090;-68
2022/01/09 09:21:46;;;;;;;;;;;19.10;54.40;;;;;;5046532;28;42916;-69
2022/01/09 09:24:13;;;;;;;;;;;19.10;54.50;;;;;;5045312;28;42981;-72
2022/01/09 09:26:38;;;;;;;;;;;19.10;54.50;;;;;;5045917;28;44057;-69
2022/01/09 09:29:05;;;;;;;;;;;19.10;54.90;;;;;;5026994;28;43020;-67
2022/01/09 09:31:31;;;;;;;;;;;19.10;48.10;;;;;;5024869;28;44144;-66
2022/01/09 09:33:57;;;;;;;;;;;19.00;48.40;;;;;;5025566;28;42898;-67
2022/01/09 09:36:24;;;;;;;;;;;19.00;48.90;;;;;;5025384;28;42857;-68
2022/01/09 09:38:49;;;;;;;;;;;19.00;50.70;;;;;;5056316;28;43182;-68
2022/01/09 09:41:15;;;;;;;;;;;19.00;49.60;;;;;;5045716;28;43466;-68
2022/01/09 09:43:40;;;;;;;;;;;19.00;50.00;;;;;;5042706;28;43259;-68
2022/01/09 09:46:06;;;;;;;;;;;19.10;50.10;;;;;;5041589;28;44022;-68
2022/01/09 09:48:32;;;;;;;;;;;19.10;50.10;;;;;;5065627;28;42922;-68
2022/01/09 09:50:57;;;;;;;;;;;19.10;50.20;;;;;;5064410;28;42920;-68
2022/01/09 09:53:23;;;;;;;;;;;19.10;50.40;;;;;;5047852;28;43409;-68
2022/01/09 09:55:51;;;;;;;;;;;19.00;45.40;;;;;;5034317;28;43078;-72
2022/01/09 09:58:17;;;;;;;;;;;18.30;39.30;;;;;;5043810;28;43012;-75
2022/01/09 10:00:50;;;;;;;;;;;18.20;39.70;;;;;;5025104;28;43932;-79
2022/01/09 10:03:25;;;;;;;;;;;17.30;39.20;;;;;;5027174;28;43082;-73
2022/01/09 10:05:51;;;;;;;;;;;17.80;41.60;;;;;;5005603;28;45475;-74
2022/01/09 10:08:16;;;;;;;;;;;18.10;45.90;;;;;;5025068;28;43047;-76
2022/01/09 10:10:42;;;;;;;;;;;18.30;45.70;;;;;;5008824;28;43916;-72
2022/01/09 10:13:09;;;;;;;;;;;18.50;46.80;;;;;;5040390;28;43093;-73
2022/01/09 10:15:45;;;;;;;;;;;18.50;47.10;;;;;;5035184;28;43630;-73
2022/01/09 10:18:11;;;;;;;;;;;18.70;47.00;;;;;;5044116;28;43137;-73
2022/01/09 10:20:36;;;;;;;;;;;18.70;47.20;;;;;;5035269;28;43060;-73
2022/01/09 10:23:02;;;;;;;;;;;18.80;47.40;;;;;;5027705;28;43152;-82
2022/01/09 10:25:38;;;;;;;;;;;18.80;46.90;;;;;;5042567;28;43967;-73
2022/01/09 10:28:07;;;;;;;;;;;18.80;46.90;;;;;;5028593;28;43552;-76
2022/01/09 10:30:33;;;;;;;;;;;18.80;47.10;;;;;;5036507;28;43453;-74
2022/01/09 10:32:59;;;;;;;;;;;18.80;47.50;;;;;;5041592;28;43007;-73
2022/01/09 10:35:26;;;;;;;;;;;18.80;47.90;;;;;;5043631;28;42980;-73
2022/01/09 10:38:02;;;;;;;;;;;18.90;48.10;;;;;;5033428;28;42897;-73
2022/01/09 10:40:32;;;;;;;;;;;19.00;48.10;;;;;;5023395;28;43744;-73
2022/01/09 10:43:16;;;;;;;;;;;18.90;48.50;;;;;;5030288;28;43105;-72
2022/01/09 10:45:43;;;;;;;;;;;18.90;48.50;;;;;;5044284;28;43065;-73
2022/01/09 10:48:10;;;;;;;;;;;18.90;48.80;;;;;;5044569;28;43168;-73
2022/01/09 10:50:37;;;;;;;;;;;18.90;48.20;;;;;;5044483;28;43465;-72
2022/01/09 10:53:15;;;;;;;;;;;18.60;47.90;;;;;;5038317;28;43725;-75
2022/01/09 10:55:41;;;;;;;;;;;18.90;48.30;;;;;;5044344;28;43987;-74
2022/01/09 10:58:17;;;;;;;;;;;19.00;48.20;;;;;;5043513;28;45072;-73
2022/01/09 11:00:42;;;;;;;;;;;19.00;48.30;;;;;;5043668;28;43613;-79
2022/01/09 11:03:08;;;;;;;;;;;19.00;48.40;;;;;;5044407;28;43376;-74
2022/01/09 11:05:35;;;;;;;;;;;19.00;48.20;;;;;;5037892;28;43868;-76
2022/01/09 11:08:02;;;;;;;;;;;19.00;48.60;;;;;;5023876;28;42928;-73
2022/01/09 11:10:28;;;;;;;;;;;19.00;48.50;;;;;;5024792;28;43066;-75
2022/01/09 11:12:58;;;;;;;;;;;19.00;48.30;;;;;;5024292;28;42993;-72
2022/01/09 11:15:28;;;;;;;;;;;19.00;48.30;;;;;;5031028;28;42887;-78
2022/01/09 11:17:56;;;;;;;;;;;19.00;48.40;;;;;;5044321;28;43030;-73
2022/01/09 11:20:21;;;;;;;;;;;19.00;48.40;;;;;;5044720;28;43590;-73
2022/01/09 11:22:47;;;;;;;;;;;19.00;48.50;;;;;;5044211;28;43682;-71
2022/01/09 11:25:13;;;;;;;;;;;19.00;48.60;;;;;;5044559;28;43084;-72
2022/01/09 11:27:58;;;;;;;;;;;19.00;48.60;;;;;;5045181;28;42933;-71
2022/01/09 11:30:47;;;;;;;;;;;19.00;48.60;;;;;;5043695;28;43685;-72
2022/01/09 11:33:21;;;;;;;;;;;19.00;48.60;;;;;;5034699;28;43029;-71
2022/01/09 11:35:55;;;;;;;;;;;19.00;48.50;;;;;;5044537;28;43079;-74
2022/01/09 11:38:25;;;;;;;;;;;19.00;48.50;;;;;;5045625;28;43001;-73
2022/01/09 11:40:50;;;;;;;;;;;19.10;48.70;;;;;;5045693;28;43741;-73
2022/01/09 11:43:17;;;;;;;;;;;19.00;48.50;;;;;;5045238;28;42969;-74
2022/01/09 11:45:51;;;;;;;;;;;19.00;48.80;;;;;;5044602;28;42965;-72
2022/01/09 11:48:18;;;;;;;;;;;19.10;48.70;;;;;;5042765;28;43058;-71
2022/01/09 11:51:04;;;;;;;;;;;19.00;48.30;;;;;;5044542;28;43584;-73
2022/01/09 11:53:49;;;;;;;;;;;19.10;48.70;;;;;;5029241;28;43079;-72
2022/01/09 11:56:35;;;;;;;;;;;19.10;48.70;;;;;;5043420;28;42853;-72
2022/01/09 11:59:16;;;;;;;;;;;19.10;48.80;;;;;;5043672;28;42925;-71
2022/01/09 12:01:41;;;;;;;;;;;19.10;48.50;;;;;;5043425;28;43168;-71
2022/01/09 12:04:26;;;;;;;;;;;19.10;48.40;;;;;;5042720;28;42938;-74
2022/01/09 12:06:56;;;;;;;;;;;19.10;48.70;;;;;;5040357;28;44675;-72
2022/01/09 12:09:51;;;;;;;;;;;19.10;48.50;;;;;;5043757;28;43008;-72
2022/01/09 12:12:43;;;;;;;;;;;19.00;48.70;;;;;;5026435;28;43916;-72
2022/01/09 12:15:09;;;;;;;;;;;19.10;48.70;;;;;;5033066;28;43047;-73
2022/01/09 12:17:36;;;;;;;;;;;19.10;48.80;;;;;;5043525;28;43880;-72
2022/01/09 12:20:04;;;;;;;;;;;19.10;48.70;;;;;;5042822;28;42964;-72
2022/01/09 12:25:33;;;;;;;;;;;19.10;48.70;;;;;;5026671;28;43733;-73
2022/01/09 12:28:05;;;;;;;;;;;19.10;48.70;;;;;;5038631;28;43892;-72
2022/01/09 12:30:33;;;;;;;;;;;19.10;48.70;;;;;;5036528;28;44122;-71
2022/01/09 12:32:59;;;;;;;;;;;19.10;48.70;;;;;;5033062;28;43584;-72
2022/01/09 12:35:25;;;;;;;;;;;19.10;48.90;;;;;;5032235;28;42971;-70
2022/01/09 12:37:53;;;;;;;;;;;19.10;48.80;;;;;;5041243;28;43144;-71
2022/01/09 12:40:19;;;;;;;;;;;19.10;48.80;;;;;;5042112;28;42970;-71
2022/01/09 12:42:46;;;;;;;;;;;19.10;48.50;;;;;;5044905;28;42916;-71
2022/01/09 12:45:21;;;;;;;;;;;19.10;48.70;;;;;;5040373;28;43056;-74
2022/01/09 12:47:47;;;;;;;;;;;19.10;48.70;;;;;;5036474;28;43351;-72
2022/01/09 12:50:13;;;;;;;;;;;19.10;48.60;;;;;;5027644;28;42929;-72
2022/01/09 12:52:39;;;;;;;;;;;19.10;48.70;;;;;;5038690;28;43439;-71
2022/01/09 12:55:06;;;;;;;;;;;19.10;48.80;;;;;;5032472;28;42927;-71
2022/01/09 12:57:48;;;;;;;;;;;19.10;48.80;;;;;;5044112;28;43738;-70
2022/01/09 13:00:14;;;;;;;;;;;19.10;48.80;;;;;;5036320;28;43023;-71
2022/01/09 13:02:39;;;;;;;;;;;18.70;48.50;;;;;;5025463;28;43727;-71
2022/01/09 13:05:05;;;;;;;;;;;19.10;48.80;;;;;;5043429;28;43240;-70
2022/01/09 13:07:31;;;;;;;;;;;19.10;48.80;;;;;;5046547;28;43610;-71
2022/01/09 13:09:56;;;;;;;;;;;19.10;48.80;;;;;;5043683;28;42972;-74
2022/01/09 13:12:23;;;;;;;;;;;19.20;48.80;;;;;;5044647;28;43008;-70
2022/01/09 13:14:48;;;;;;;;;;;19.10;48.80;;;;;;5044753;28;44043;-70
2022/01/09 13:17:16;;;;;;;;;;;19.10;48.80;;;;;;5022677;28;43136;-70
2022/01/09 13:19:41;;;;;;;;;;;19.10;48.80;;;;;;5042895;28;43060;-71
2022/01/09 13:22:09;;;;;;;;;;;19.10;48.80;;;;;;5044325;28;43403;-71
2022/01/09 13:24:34;;;;;;;;;;;19.20;49.00;;;;;;5044316;28;43097;-70
2022/01/09 13:27:04;;;;;;;;;;;19.20;48.90;;;;;;5042427;28;43425;-71
2022/01/09 13:29:33;;;;;;;;;;;19.10;48.80;;;;;;5043458;28;43164;-70
2022/01/09 13:32:03;;;;;;;;;;;19.10;48.80;;;;;;5043604;28;43924;-70
2022/01/09 13:34:29;;;;;;;;;;;19.20;48.80;;;;;;5043913;28;43011;-70
2022/01/09 13:36:57;;;;;;;;;;;19.20;48.80;;;;;;5043102;28;43117;-70
2022/01/09 13:39:30;;;;;;;;;;;19.20;48.80;;;;;;5042083;28;42983;-70
2022/01/09 13:41:55;;;;;;;;;;;19.20;48.80;;;;;;5043668;28;42930;-70
2022/01/09 13:44:22;;;;;;;;;;;19.20;48.80;;;;;;5044965;28;43004;-71
2022/01/09 13:46:59;;;;;;;;;;;19.20;48.80;;;;;;5044155;28;43911;-71
2022/01/09 13:49:24;;;;;;;;;;;19.20;48.70;;;;;;5043241;28;43034;-70
2022/01/09 13:51:50;;;;;;;;;;;19.20;49.70;;;;;;5025046;28;44480;-72
2022/01/09 13:54:17;;;;;;;;;;;19.30;50.50;;;;;;5045228;28;43008;-70
2022/01/09 13:56:44;;;;;;;;;;;19.30;50.80;;;;;;5042855;28;43038;-70
2022/01/09 13:59:09;;;;;;;;;;;19.40;51.00;;;;;;5040966;28;43090;-71
2022/01/09 14:01:48;;;;;;;;;;;19.40;50.10;;;;;;5040004;28;43703;-70
2022/01/09 14:04:18;;;;;;;;;;;19.40;51.30;;;;;;5042574;28;43050;-71
2022/01/09 14:06:44;;;;;;;;;;;19.40;51.40;;;;;;5041565;28;43410;-69
2022/01/09 14:09:10;;;;;;;;;;;19.40;51.60;;;;;;5041972;28;42988;-69
2022/01/09 14:11:35;;;;;;;;;;;19.50;51.90;;;;;;5041038;28;42930;-70
2022/01/09 14:14:01;;;;;;;;;;;19.50;52.30;;;;;;5040995;28;42987;-72
2022/01/09 14:16:35;;;;;;;;;;;19.50;52.40;;;;;;5044349;28;43259;-71
2022/01/09 14:19:04;;;;;;;;;;;19.40;52.20;;;;;;5043177;28;42846;-71
2022/01/09 14:21:29;;;;;;;;;;;19.40;52.60;;;;;;5045203;28;43134;-70